sensor_id;sensor_type;location;lat;lon;timestamp;P1;durP1;ratioP1;P2;durP2;ratioP2
11238;SDS011;5677;48.488;13.436;2023-09-19T00:02:21;1.37;;;0.97;;
11238;SDS011;5677;48.488;13.436;2023-09-19T00:04:48;2.43;;;1.10;;
11238;SDS011;5677;48.488;13.436;2023-09-19T00:07:15;2.57;;;1.10;;
11238;SDS011;5677;48.488;13.436;2023-09-19T00:09:42;1.73;;;1.20;;
11238;SDS011;5677;48.488;13.436;2023-09-19T00:12:09;1.27;;;1.10;;
11238;SDS011;5677;48.488;13.436;2023-09-19T00:14:38;1.50;;;1.20;;
11238;SDS011;5677;48.488;13.436;2023-09-19T00:17:05;1.60;;;1.30;;
11238;SDS011;5677;48.488;13.436;2023-09-19T00:19:35;5.23;;;1.10;;
11238;SDS011;5677;48.488;13.436;2023-09-19T00:22:03;1.77;;;1.10;;
11238;SDS011;5677;48.488;13.436;2023-09-19T00:24:30;2.17;;;1.20;;
11238;SDS011;5677;48.488;13.436;2023-09-19T00:26:56;3.40;;;1.37;;
11238;SDS011;5677;48.488;13.436;2023-09-19T00:29:24;1.80;;;1.30;;
11238;SDS011;5677;48.488;13.436;2023-09-19T00:31:54;2.57;;;1.10;;
11238;SDS011;5677;48.488;13.436;2023-09-19T00:34:21;2.13;;;1.07;;
11238;SDS011;5677;48.488;13.436;2023-09-19T00:36:50;1.20;;;1.00;;
11238;SDS011;5677;48.488;13.436;2023-09-19T00:39:18;4.20;;;1.20;;
11238;SDS011;5677;48.488;13.436;2023-09-19T00:41:45;2.10;;;1.10;;
11238;SDS011;5677;48.488;13.436;2023-09-19T00:44:12;1.23;;;1.10;;
11238;SDS011;5677;48.488;13.436;2023-09-19T00:46:40;1.50;;;1.07;;
11238;SDS011;5677;48.488;13.436;2023-09-19T00:49:07;2.47;;;1.40;;
11238;SDS011;5677;48.488;13.436;2023-09-19T00:51:36;2.07;;;1.13;;
11238;SDS011;5677;48.488;13.436;2023-09-19T00:54:04;1.30;;;1.03;;
11238;SDS011;5677;48.488;13.436;2023-09-19T00:56:32;3.47;;;1.40;;
11238;SDS011;5677;48.488;13.436;2023-09-19T00:58:59;1.73;;;1.23;;
11238;SDS011;5677;48.488;13.436;2023-09-19T01:01:25;2.57;;;1.03;;
11238;SDS011;5677;48.488;13.436;2023-09-19T01:03:53;1.20;;;1.00;;
11238;SDS011;5677;48.488;13.436;2023-09-19T01:06:20;2.67;;;1.20;;
11238;SDS011;5677;48.488;13.436;2023-09-19T01:08:47;1.87;;;1.50;;
11238;SDS011;5677;48.488;13.436;2023-09-19T01:11:16;2.07;;;1.40;;
11238;SDS011;5677;48.488;13.436;2023-09-19T01:13:55;2.03;;;1.17;;
11238;SDS011;5677;48.488;13.436;2023-09-19T01:16:29;1.70;;;1.27;;
11238;SDS011;5677;48.488;13.436;2023-09-19T01:19:01;1.77;;;1.43;;
11238;SDS011;5677;48.488;13.436;2023-09-19T01:21:55;2.43;;;1.60;;
11238;SDS011;5677;48.488;13.436;2023-09-19T01:24:36;3.50;;;1.30;;
11238;SDS011;5677;48.488;13.436;2023-09-19T01:27:41;2.23;;;1.20;;
11238;SDS011;5677;48.488;13.436;2023-09-19T01:30:35;1.77;;;1.10;;
11238;SDS011;5677;48.488;13.436;2023-09-19T01:33:05;3.63;;;1.60;;
11238;SDS011;5677;48.488;13.436;2023-09-19T01:35:33;2.10;;;1.40;;
11238;SDS011;5677;48.488;13.436;2023-09-19T01:38:04;1.80;;;1.10;;
11238;SDS011;5677;48.488;13.436;2023-09-19T01:40:32;1.37;;;1.20;;
11238;SDS011;5677;48.488;13.436;2023-09-19T01:43:08;2.63;;;1.27;;
11238;SDS011;5677;48.488;13.436;2023-09-19T01:45:43;1.30;;;1.10;;
11238;SDS011;5677;48.488;13.436;2023-09-19T01:48:23;1.27;;;1.10;;
11238;SDS011;5677;48.488;13.436;2023-09-19T01:51:02;4.20;;;1.60;;
11238;SDS011;5677;48.488;13.436;2023-09-19T01:53:33;1.20;;;1.10;;
11238;SDS011;5677;48.488;13.436;2023-09-19T01:56:02;2.73;;;1.43;;
11238;SDS011;5677;48.488;13.436;2023-09-19T01:58:37;2.40;;;1.30;;
11238;SDS011;5677;48.488;13.436;2023-09-19T02:01:11;2.13;;;1.40;;
11238;SDS011;5677;48.488;13.436;2023-09-19T02:03:40;0.97;;;0.93;;
11238;SDS011;5677;48.488;13.436;2023-09-19T02:06:12;2.20;;;1.33;;
11238;SDS011;5677;48.488;13.436;2023-09-19T02:08:40;2.83;;;1.20;;
11238;SDS011;5677;48.488;13.436;2023-09-19T02:11:07;1.77;;;1.17;;
11238;SDS011;5677;48.488;13.436;2023-09-19T02:13:34;2.33;;;1.50;;
11238;SDS011;5677;48.488;13.436;2023-09-19T02:16:01;1.67;;;1.40;;
11238;SDS011;5677;48.488;13.436;2023-09-19T02:18:30;1.87;;;1.30;;
11238;SDS011;5677;48.488;13.436;2023-09-19T02:21:00;1.70;;;1.17;;
11238;SDS011;5677;48.488;13.436;2023-09-19T02:23:27;2.40;;;1.30;;
11238;SDS011;5677;48.488;13.436;2023-09-19T02:25:55;2.43;;;1.20;;
11238;SDS011;5677;48.488;13.436;2023-09-19T02:28:23;2.23;;;1.20;;
11238;SDS011;5677;48.488;13.436;2023-09-19T02:30:55;2.03;;;1.33;;
11238;SDS011;5677;48.488;13.436;2023-09-19T02:33:21;2.77;;;1.33;;
11238;SDS011;5677;48.488;13.436;2023-09-19T02:35:50;1.73;;;1.30;;
11238;SDS011;5677;48.488;13.436;2023-09-19T02:38:22;2.00;;;1.33;;
11238;SDS011;5677;48.488;13.436;2023-09-19T02:40:49;1.80;;;1.30;;
11238;SDS011;5677;48.488;13.436;2023-09-19T02:43:16;3.03;;;1.30;;
11238;SDS011;5677;48.488;13.436;2023-09-19T02:45:44;2.47;;;1.40;;
11238;SDS011;5677;48.488;13.436;2023-09-19T02:48:11;2.23;;;1.37;;
11238;SDS011;5677;48.488;13.436;2023-09-19T02:50:38;1.90;;;1.20;;
11238;SDS011;5677;48.488;13.436;2023-09-19T02:53:06;1.30;;;1.20;;
11238;SDS011;5677;48.488;13.436;2023-09-19T02:55:35;2.07;;;1.27;;
11238;SDS011;5677;48.488;13.436;2023-09-19T02:58:03;1.77;;;1.00;;
11238;SDS011;5677;48.488;13.436;2023-09-19T03:00:32;2.30;;;1.23;;
11238;SDS011;5677;48.488;13.436;2023-09-19T03:03:00;2.17;;;1.17;;
11238;SDS011;5677;48.488;13.436;2023-09-19T03:05:28;1.93;;;1.37;;
11238;SDS011;5677;48.488;13.436;2023-09-19T03:07:56;3.10;;;1.30;;
11238;SDS011;5677;48.488;13.436;2023-09-19T03:10:27;1.77;;;1.20;;
11238;SDS011;5677;48.488;13.436;2023-09-19T03:12:54;1.70;;;1.30;;
11238;SDS011;5677;48.488;13.436;2023-09-19T03:15:21;3.90;;;1.20;;
11238;SDS011;5677;48.488;13.436;2023-09-19T03:17:48;2.80;;;1.07;;
11238;SDS011;5677;48.488;13.436;2023-09-19T03:20:17;2.40;;;1.40;;
11238;SDS011;5677;48.488;13.436;2023-09-19T03:22:44;1.60;;;1.17;;
11238;SDS011;5677;48.488;13.436;2023-09-19T03:25:11;3.20;;;1.57;;
11238;SDS011;5677;48.488;13.436;2023-09-19T03:27:40;1.23;;;1.13;;
11238;SDS011;5677;48.488;13.436;2023-09-19T03:30:07;2.27;;;1.30;;
11238;SDS011;5677;48.488;13.436;2023-09-19T03:32:40;2.43;;;1.53;;
11238;SDS011;5677;48.488;13.436;2023-09-19T03:35:10;1.80;;;1.23;;
11238;SDS011;5677;48.488;13.436;2023-09-19T03:37:39;2.43;;;1.20;;
11238;SDS011;5677;48.488;13.436;2023-09-19T03:40:06;2.13;;;1.60;;
11238;SDS011;5677;48.488;13.436;2023-09-19T03:42:37;2.07;;;1.43;;
11238;SDS011;5677;48.488;13.436;2023-09-19T03:45:06;2.10;;;1.20;;
11238;SDS011;5677;48.488;13.436;2023-09-19T03:47:36;2.13;;;1.13;;
11238;SDS011;5677;48.488;13.436;2023-09-19T03:50:04;3.80;;;1.47;;
11238;SDS011;5677;48.488;13.436;2023-09-19T03:52:33;2.07;;;1.40;;
11238;SDS011;5677;48.488;13.436;2023-09-19T03:55:00;1.63;;;1.43;;
11238;SDS011;5677;48.488;13.436;2023-09-19T03:57:29;3.60;;;1.70;;
11238;SDS011;5677;48.488;13.436;2023-09-19T03:59:56;1.47;;;1.10;;
11238;SDS011;5677;48.488;13.436;2023-09-19T04:02:25;5.90;;;1.50;;
11238;SDS011;5677;48.488;13.436;2023-09-19T04:04:57;2.43;;;1.30;;
11238;SDS011;5677;48.488;13.436;2023-09-19T04:07:25;1.80;;;1.30;;
11238;SDS011;5677;48.488;13.436;2023-09-19T04:09:54;2.43;;;1.50;;
11238;SDS011;5677;48.488;13.436;2023-09-19T04:12:20;2.33;;;1.60;;
11238;SDS011;5677;48.488;13.436;2023-09-19T04:14:47;2.37;;;1.40;;
11238;SDS011;5677;48.488;13.436;2023-09-19T04:17:15;2.17;;;1.27;;
11238;SDS011;5677;48.488;13.436;2023-09-19T04:19:43;4.30;;;1.40;;
11238;SDS011;5677;48.488;13.436;2023-09-19T04:22:10;1.73;;;1.20;;
11238;SDS011;5677;48.488;13.436;2023-09-19T04:24:37;3.40;;;1.30;;
11238;SDS011;5677;48.488;13.436;2023-09-19T04:27:04;1.70;;;1.40;;
11238;SDS011;5677;48.488;13.436;2023-09-19T04:29:32;2.67;;;1.20;;
11238;SDS011;5677;48.488;13.436;2023-09-19T04:31:59;2.40;;;1.40;;
11238;SDS011;5677;48.488;13.436;2023-09-19T04:34:25;5.13;;;1.33;;
11238;SDS011;5677;48.488;13.436;2023-09-19T04:36:54;1.53;;;1.30;;
11238;SDS011;5677;48.488;13.436;2023-09-19T04:39:23;1.73;;;1.10;;
11238;SDS011;5677;48.488;13.436;2023-09-19T04:41:51;2.20;;;1.20;;
11238;SDS011;5677;48.488;13.436;2023-09-19T04:44:18;1.73;;;1.13;;
11238;SDS011;5677;48.488;13.436;2023-09-19T04:46:45;2.10;;;1.50;;
11238;SDS011;5677;48.488;13.436;2023-09-19T04:49:12;1.93;;;1.30;;
11238;SDS011;5677;48.488;13.436;2023-09-19T04:51:39;1.50;;;1.10;;
11238;SDS011;5677;48.488;13.436;2023-09-19T04:54:09;1.60;;;1.23;;
11238;SDS011;5677;48.488;13.436;2023-09-19T04:56:36;3.47;;;1.30;;
11238;SDS011;5677;48.488;13.436;2023-09-19T04:59:05;1.63;;;1.30;;
11238;SDS011;5677;48.488;13.436;2023-09-19T05:01:32;3.93;;;1.40;;
11238;SDS011;5677;48.488;13.436;2023-09-19T05:03:59;1.60;;;1.20;;
11238;SDS011;5677;48.488;13.436;2023-09-19T05:06:25;1.83;;;1.20;;
11238;SDS011;5677;48.488;13.436;2023-09-19T05:08:52;2.27;;;1.50;;
11238;SDS011;5677;48.488;13.436;2023-09-19T05:11:20;2.13;;;1.20;;
11238;SDS011;5677;48.488;13.436;2023-09-19T05:13:48;2.40;;;1.20;;
11238;SDS011;5677;48.488;13.436;2023-09-19T05:16:15;1.53;;;1.30;;
11238;SDS011;5677;48.488;13.436;2023-09-19T05:18:42;2.10;;;1.37;;
11238;SDS011;5677;48.488;13.436;2023-09-19T05:21:09;1.60;;;1.07;;
11238;SDS011;5677;48.488;13.436;2023-09-19T05:23:37;2.00;;;1.20;;
11238;SDS011;5677;48.488;13.436;2023-09-19T05:26:04;5.00;;;1.57;;
11238;SDS011;5677;48.488;13.436;2023-09-19T05:28:32;3.10;;;1.50;;
11238;SDS011;5677;48.488;13.436;2023-09-19T05:30:59;2.53;;;1.20;;
11238;SDS011;5677;48.488;13.436;2023-09-19T05:33:27;2.00;;;1.60;;
11238;SDS011;5677;48.488;13.436;2023-09-19T05:35:56;2.07;;;1.40;;
11238;SDS011;5677;48.488;13.436;2023-09-19T05:38:23;3.33;;;1.57;;
11238;SDS011;5677;48.488;13.436;2023-09-19T05:40:51;1.40;;;1.10;;
11238;SDS011;5677;48.488;13.436;2023-09-19T05:43:19;1.73;;;1.30;;
11238;SDS011;5677;48.488;13.436;2023-09-19T05:45:47;1.43;;;1.20;;
11238;SDS011;5677;48.488;13.436;2023-09-19T05:48:17;1.87;;;1.40;;
11238;SDS011;5677;48.488;13.436;2023-09-19T05:50:46;2.43;;;1.30;;
11238;SDS011;5677;48.488;13.436;2023-09-19T05:53:13;2.63;;;1.40;;
11238;SDS011;5677;48.488;13.436;2023-09-19T05:55:41;2.60;;;1.47;;
11238;SDS011;5677;48.488;13.436;2023-09-19T05:58:08;2.67;;;1.60;;
11238;SDS011;5677;48.488;13.436;2023-09-19T06:00:35;2.17;;;1.30;;
11238;SDS011;5677;48.488;13.436;2023-09-19T06:03:03;1.70;;;1.27;;
11238;SDS011;5677;48.488;13.436;2023-09-19T06:05:30;3.90;;;1.57;;
11238;SDS011;5677;48.488;13.436;2023-09-19T06:07:57;2.20;;;1.27;;
11238;SDS011;5677;48.488;13.436;2023-09-19T06:10:25;2.23;;;1.50;;
11238;SDS011;5677;48.488;13.436;2023-09-19T06:12:52;2.63;;;1.43;;
11238;SDS011;5677;48.488;13.436;2023-09-19T06:15:20;3.73;;;1.80;;
11238;SDS011;5677;48.488;13.436;2023-09-19T06:17:48;3.00;;;1.70;;
11238;SDS011;5677;48.488;13.436;2023-09-19T06:20:17;1.93;;;1.30;;
11238;SDS011;5677;48.488;13.436;2023-09-19T06:22:45;1.80;;;1.40;;
11238;SDS011;5677;48.488;13.436;2023-09-19T06:25:12;1.77;;;1.20;;
11238;SDS011;5677;48.488;13.436;2023-09-19T06:27:44;1.70;;;1.40;;
11238;SDS011;5677;48.488;13.436;2023-09-19T06:33:22;6.57;;;1.83;;
11238;SDS011;5677;48.488;13.436;2023-09-19T06:35:50;4.23;;;1.60;;
11238;SDS011;5677;48.488;13.436;2023-09-19T06:38:24;1.97;;;1.10;;
11238;SDS011;5677;48.488;13.436;2023-09-19T06:40:50;2.23;;;1.33;;
11238;SDS011;5677;48.488;13.436;2023-09-19T06:43:17;2.73;;;1.53;;
11238;SDS011;5677;48.488;13.436;2023-09-19T06:45:45;4.17;;;1.90;;
11238;SDS011;5677;48.488;13.436;2023-09-19T06:48:11;4.63;;;2.20;;
11238;SDS011;5677;48.488;13.436;2023-09-19T06:50:38;5.40;;;2.10;;
11238;SDS011;5677;48.488;13.436;2023-09-19T06:53:07;1.87;;;1.50;;
11238;SDS011;5677;48.488;13.436;2023-09-19T06:55:35;1.73;;;1.60;;
11238;SDS011;5677;48.488;13.436;2023-09-19T06:58:02;3.10;;;1.60;;
11238;SDS011;5677;48.488;13.436;2023-09-19T07:00:31;2.13;;;1.47;;
11238;SDS011;5677;48.488;13.436;2023-09-19T07:03:01;3.87;;;1.57;;
11238;SDS011;5677;48.488;13.436;2023-09-19T07:05:33;2.67;;;1.60;;
11238;SDS011;5677;48.488;13.436;2023-09-19T07:08:02;2.90;;;1.70;;
11238;SDS011;5677;48.488;13.436;2023-09-19T07:10:32;4.00;;;1.77;;
11238;SDS011;5677;48.488;13.436;2023-09-19T07:13:00;2.23;;;1.33;;
11238;SDS011;5677;48.488;13.436;2023-09-19T07:15:28;2.90;;;1.70;;
11238;SDS011;5677;48.488;13.436;2023-09-19T07:17:58;1.87;;;1.40;;
11238;SDS011;5677;48.488;13.436;2023-09-19T07:20:26;1.43;;;1.33;;
11238;SDS011;5677;48.488;13.436;2023-09-19T07:22:56;2.27;;;1.40;;
11238;SDS011;5677;48.488;13.436;2023-09-19T07:25:24;2.97;;;1.30;;
11238;SDS011;5677;48.488;13.436;2023-09-19T07:27:53;2.03;;;1.40;;
11238;SDS011;5677;48.488;13.436;2023-09-19T07:30:21;1.67;;;1.57;;
11238;SDS011;5677;48.488;13.436;2023-09-19T07:32:48;1.77;;;1.43;;
11238;SDS011;5677;48.488;13.436;2023-09-19T07:35:15;2.53;;;1.20;;
11238;SDS011;5677;48.488;13.436;2023-09-19T07:37:44;2.43;;;1.50;;
11238;SDS011;5677;48.488;13.436;2023-09-19T07:40:14;3.53;;;1.40;;
11238;SDS011;5677;48.488;13.436;2023-09-19T07:42:41;2.10;;;1.57;;
11238;SDS011;5677;48.488;13.436;2023-09-19T07:45:10;2.10;;;1.30;;
11238;SDS011;5677;48.488;13.436;2023-09-19T07:47:39;3.50;;;1.60;;
11238;SDS011;5677;48.488;13.436;2023-09-19T07:50:06;2.10;;;1.37;;
11238;SDS011;5677;48.488;13.436;2023-09-19T07:52:34;3.67;;;1.60;;
11238;SDS011;5677;48.488;13.436;2023-09-19T07:55:01;1.97;;;1.33;;
11238;SDS011;5677;48.488;13.436;2023-09-19T07:57:34;3.37;;;1.40;;
11238;SDS011;5677;48.488;13.436;2023-09-19T08:00:01;2.53;;;1.33;;
11238;SDS011;5677;48.488;13.436;2023-09-19T08:02:31;2.43;;;1.43;;
11238;SDS011;5677;48.488;13.436;2023-09-19T08:05:00;2.33;;;1.37;;
11238;SDS011;5677;48.488;13.436;2023-09-19T08:07:31;2.40;;;1.33;;
11238;SDS011;5677;48.488;13.436;2023-09-19T08:09:58;2.77;;;1.37;;
11238;SDS011;5677;48.488;13.436;2023-09-19T08:12:24;1.83;;;1.40;;
11238;SDS011;5677;48.488;13.436;2023-09-19T08:14:51;1.57;;;1.40;;
11238;SDS011;5677;48.488;13.436;2023-09-19T08:17:20;1.63;;;1.40;;
11238;SDS011;5677;48.488;13.436;2023-09-19T08:19:49;2.27;;;1.40;;
11238;SDS011;5677;48.488;13.436;2023-09-19T08:22:17;2.60;;;1.40;;
11238;SDS011;5677;48.488;13.436;2023-09-19T08:24:44;2.73;;;1.57;;
11238;SDS011;5677;48.488;13.436;2023-09-19T08:27:13;1.70;;;1.50;;
11238;SDS011;5677;48.488;13.436;2023-09-19T08:29:40;1.93;;;1.00;;
11238;SDS011;5677;48.488;13.436;2023-09-19T08:32:07;4.80;;;1.60;;
11238;SDS011;5677;48.488;13.436;2023-09-19T08:34:34;1.80;;;1.37;;
11238;SDS011;5677;48.488;13.436;2023-09-19T08:37:04;3.10;;;1.40;;
11238;SDS011;5677;48.488;13.436;2023-09-19T08:39:32;2.50;;;1.53;;
11238;SDS011;5677;48.488;13.436;2023-09-19T08:42:02;2.10;;;1.10;;
11238;SDS011;5677;48.488;13.436;2023-09-19T08:44:29;2.57;;;1.43;;
11238;SDS011;5677;48.488;13.436;2023-09-19T08:46:59;1.90;;;1.33;;
11238;SDS011;5677;48.488;13.436;2023-09-19T08:49:33;3.87;;;1.80;;
11238;SDS011;5677;48.488;13.436;2023-09-19T08:52:07;3.03;;;1.70;;
11238;SDS011;5677;48.488;13.436;2023-09-19T08:54:42;1.97;;;1.23;;
11238;SDS011;5677;48.488;13.436;2023-09-19T08:57:11;4.73;;;1.90;;
11238;SDS011;5677;48.488;13.436;2023-09-19T08:59:46;4.40;;;1.50;;
11238;SDS011;5677;48.488;13.436;2023-09-19T09:02:16;3.87;;;1.60;;
11238;SDS011;5677;48.488;13.436;2023-09-19T09:04:44;2.97;;;1.73;;
11238;SDS011;5677;48.488;13.436;2023-09-19T09:07:14;4.47;;;2.00;;
11238;SDS011;5677;48.488;13.436;2023-09-19T09:09:41;5.73;;;1.93;;
11238;SDS011;5677;48.488;13.436;2023-09-19T09:12:10;2.80;;;1.73;;
11238;SDS011;5677;48.488;13.436;2023-09-19T09:14:38;9.53;;;3.13;;
11238;SDS011;5677;48.488;13.436;2023-09-19T09:17:06;10.13;;;3.20;;
11238;SDS011;5677;48.488;13.436;2023-09-19T09:19:33;13.07;;;3.33;;
11238;SDS011;5677;48.488;13.436;2023-09-19T09:22:06;9.50;;;3.50;;
11238;SDS011;5677;48.488;13.436;2023-09-19T09:24:35;8.77;;;3.00;;
11238;SDS011;5677;48.488;13.436;2023-09-19T09:27:04;8.20;;;2.93;;
11238;SDS011;5677;48.488;13.436;2023-09-19T09:29:41;8.30;;;2.77;;
11238;SDS011;5677;48.488;13.436;2023-09-19T09:32:18;7.00;;;2.40;;
11238;SDS011;5677;48.488;13.436;2023-09-19T09:34:46;7.27;;;2.57;;
11238;SDS011;5677;48.488;13.436;2023-09-19T09:37:14;8.80;;;2.47;;
11238;SDS011;5677;48.488;13.436;2023-09-19T09:39:50;5.63;;;2.10;;
11238;SDS011;5677;48.488;13.436;2023-09-19T09:45:17;14.27;;;2.80;;
11238;SDS011;5677;48.488;13.436;2023-09-19T09:47:53;8.33;;;2.20;;
11238;SDS011;5677;48.488;13.436;2023-09-19T09:50:27;7.10;;;2.00;;
11238;SDS011;5677;48.488;13.436;2023-09-19T09:53:04;7.97;;;2.33;;
11238;SDS011;5677;48.488;13.436;2023-09-19T09:56:03;3.57;;;1.80;;
11238;SDS011;5677;48.488;13.436;2023-09-19T09:58:34;5.13;;;2.10;;
11238;SDS011;5677;48.488;13.436;2023-09-19T10:01:02;3.20;;;1.80;;
11238;SDS011;5677;48.488;13.436;2023-09-19T10:03:36;5.43;;;2.20;;
11238;SDS011;5677;48.488;13.436;2023-09-19T10:06:08;4.83;;;2.30;;
11238;SDS011;5677;48.488;13.436;2023-09-19T10:08:59;4.90;;;2.07;;
11238;SDS011;5677;48.488;13.436;2023-09-19T10:11:38;3.87;;;1.80;;
11238;SDS011;5677;48.488;13.436;2023-09-19T10:14:09;2.93;;;2.00;;
11238;SDS011;5677;48.488;13.436;2023-09-19T10:16:39;6.17;;;1.80;;
11238;SDS011;5677;48.488;13.436;2023-09-19T10:19:09;3.97;;;2.00;;
11238;SDS011;5677;48.488;13.436;2023-09-19T10:21:39;3.40;;;1.80;;
11238;SDS011;5677;48.488;13.436;2023-09-19T10:24:06;3.70;;;2.00;;
11238;SDS011;5677;48.488;13.436;2023-09-19T10:26:34;3.43;;;1.63;;
11238;SDS011;5677;48.488;13.436;2023-09-19T10:29:09;4.80;;;2.00;;
11238;SDS011;5677;48.488;13.436;2023-09-19T10:31:36;5.70;;;1.90;;
11238;SDS011;5677;48.488;13.436;2023-09-19T10:34:06;4.40;;;1.93;;
11238;SDS011;5677;48.488;13.436;2023-09-19T10:36:35;5.10;;;2.27;;
11238;SDS011;5677;48.488;13.436;2023-09-19T10:39:04;3.00;;;1.90;;
11238;SDS011;5677;48.488;13.436;2023-09-19T10:41:34;4.90;;;2.00;;
11238;SDS011;5677;48.488;13.436;2023-09-19T10:44:04;4.50;;;1.97;;
11238;SDS011;5677;48.488;13.436;2023-09-19T10:46:31;5.87;;;1.87;;
11238;SDS011;5677;48.488;13.436;2023-09-19T10:48:58;3.47;;;1.77;;
11238;SDS011;5677;48.488;13.436;2023-09-19T10:51:27;4.20;;;2.17;;
11238;SDS011;5677;48.488;13.436;2023-09-19T10:53:59;5.07;;;1.90;;
11238;SDS011;5677;48.488;13.436;2023-09-19T10:56:33;4.30;;;1.90;;
11238;SDS011;5677;48.488;13.436;2023-09-19T10:59:08;5.77;;;2.37;;
11238;SDS011;5677;48.488;13.436;2023-09-19T11:01:41;3.63;;;1.93;;
11238;SDS011;5677;48.488;13.436;2023-09-19T11:04:21;4.17;;;1.90;;
11238;SDS011;5677;48.488;13.436;2023-09-19T11:06:59;4.67;;;2.20;;
11238;SDS011;5677;48.488;13.436;2023-09-19T11:09:45;5.17;;;2.00;;
11238;SDS011;5677;48.488;13.436;2023-09-19T11:21:42;3.87;;;1.83;;
11238;SDS011;5677;48.488;13.436;2023-09-19T11:24:27;4.23;;;1.63;;
11238;SDS011;5677;48.488;13.436;2023-09-19T11:27:11;2.60;;;1.67;;
11238;SDS011;5677;48.488;13.436;2023-09-19T11:29:40;3.57;;;1.97;;
11238;SDS011;5677;48.488;13.436;2023-09-19T11:32:07;2.10;;;1.60;;
11238;SDS011;5677;48.488;13.436;2023-09-19T11:34:38;3.70;;;2.17;;
11238;SDS011;5677;48.488;13.436;2023-09-19T11:40:07;4.73;;;1.80;;
11238;SDS011;5677;48.488;13.436;2023-09-19T11:42:41;1.90;;;1.53;;
11238;SDS011;5677;48.488;13.436;2023-09-19T11:48:11;2.93;;;1.80;;
11238;SDS011;5677;48.488;13.436;2023-09-19T11:50:41;3.17;;;1.87;;
11238;SDS011;5677;48.488;13.436;2023-09-19T11:53:09;3.43;;;2.10;;
11238;SDS011;5677;48.488;13.436;2023-09-19T11:55:38;2.83;;;1.70;;
11238;SDS011;5677;48.488;13.436;2023-09-19T11:58:06;4.07;;;1.70;;
11238;SDS011;5677;48.488;13.436;2023-09-19T12:00:33;3.50;;;1.80;;
11238;SDS011;5677;48.488;13.436;2023-09-19T12:03:02;2.07;;;1.40;;
11238;SDS011;5677;48.488;13.436;2023-09-19T12:05:34;1.87;;;1.50;;
11238;SDS011;5677;48.488;13.436;2023-09-19T12:08:02;2.87;;;1.73;;
11238;SDS011;5677;48.488;13.436;2023-09-19T12:10:32;2.10;;;1.70;;
11238;SDS011;5677;48.488;13.436;2023-09-19T12:13:00;2.77;;;1.80;;
11238;SDS011;5677;48.488;13.436;2023-09-19T12:15:28;3.70;;;2.10;;
11238;SDS011;5677;48.488;13.436;2023-09-19T12:18:00;3.73;;;1.67;;
11238;SDS011;5677;48.488;13.436;2023-09-19T12:20:41;2.77;;;1.70;;
11238;SDS011;5677;48.488;13.436;2023-09-19T12:23:12;1.20;;;1.07;;
11238;SDS011;5677;48.488;13.436;2023-09-19T12:25:41;2.47;;;1.70;;
11238;SDS011;5677;48.488;13.436;2023-09-19T12:28:13;1.77;;;1.30;;
11238;SDS011;5677;48.488;13.436;2023-09-19T12:30:41;4.37;;;1.80;;
11238;SDS011;5677;48.488;13.436;2023-09-19T12:33:14;4.47;;;1.83;;
11238;SDS011;5677;48.488;13.436;2023-09-19T12:35:44;3.47;;;2.10;;
11238;SDS011;5677;48.488;13.436;2023-09-19T12:38:10;5.07;;;1.83;;
11238;SDS011;5677;48.488;13.436;2023-09-19T12:40:49;5.87;;;2.20;;
11238;SDS011;5677;48.488;13.436;2023-09-19T12:43:18;7.70;;;2.17;;
11238;SDS011;5677;48.488;13.436;2023-09-19T12:45:45;5.60;;;2.20;;
11238;SDS011;5677;48.488;13.436;2023-09-19T12:48:22;6.33;;;2.03;;
11238;SDS011;5677;48.488;13.436;2023-09-19T12:51:03;5.57;;;1.63;;
11238;SDS011;5677;48.488;13.436;2023-09-19T12:53:32;5.87;;;2.00;;
11238;SDS011;5677;48.488;13.436;2023-09-19T12:56:03;6.07;;;2.07;;
11238;SDS011;5677;48.488;13.436;2023-09-19T12:58:33;5.80;;;1.60;;
11238;SDS011;5677;48.488;13.436;2023-09-19T13:01:13;6.57;;;1.90;;
11238;SDS011;5677;48.488;13.436;2023-09-19T13:03:40;3.53;;;1.87;;
11238;SDS011;5677;48.488;13.436;2023-09-19T13:06:07;4.13;;;2.10;;
11238;SDS011;5677;48.488;13.436;2023-09-19T13:08:35;5.93;;;1.73;;
11238;SDS011;5677;48.488;13.436;2023-09-19T13:11:04;4.93;;;1.87;;
11238;SDS011;5677;48.488;13.436;2023-09-19T13:13:36;4.60;;;1.50;;
11238;SDS011;5677;48.488;13.436;2023-09-19T13:16:03;5.87;;;1.90;;
11238;SDS011;5677;48.488;13.436;2023-09-19T13:18:41;6.03;;;2.03;;
11238;SDS011;5677;48.488;13.436;2023-09-19T13:21:10;7.33;;;1.80;;
11238;SDS011;5677;48.488;13.436;2023-09-19T13:23:40;7.43;;;2.20;;
11238;SDS011;5677;48.488;13.436;2023-09-19T13:26:08;1.77;;;1.30;;
11238;SDS011;5677;48.488;13.436;2023-09-19T13:28:37;4.27;;;1.63;;
11238;SDS011;5677;48.488;13.436;2023-09-19T13:31:04;5.27;;;1.80;;
11238;SDS011;5677;48.488;13.436;2023-09-19T13:33:30;5.43;;;1.80;;
11238;SDS011;5677;48.488;13.436;2023-09-19T13:35:58;3.83;;;1.60;;
11238;SDS011;5677;48.488;13.436;2023-09-19T13:38:25;3.03;;;1.40;;
11238;SDS011;5677;48.488;13.436;2023-09-19T13:40:52;4.40;;;1.50;;
11238;SDS011;5677;48.488;13.436;2023-09-19T13:43:19;4.53;;;1.40;;
11238;SDS011;5677;48.488;13.436;2023-09-19T13:45:48;2.97;;;1.50;;
11238;SDS011;5677;48.488;13.436;2023-09-19T13:48:15;4.33;;;1.20;;
11238;SDS011;5677;48.488;13.436;2023-09-19T13:50:48;5.53;;;1.87;;
11238;SDS011;5677;48.488;13.436;2023-09-19T13:53:15;2.87;;;1.43;;
11238;SDS011;5677;48.488;13.436;2023-09-19T13:55:43;3.87;;;1.50;;
11238;SDS011;5677;48.488;13.436;2023-09-19T13:58:09;2.37;;;1.13;;
11238;SDS011;5677;48.488;13.436;2023-09-19T14:00:37;2.57;;;1.00;;
11238;SDS011;5677;48.488;13.436;2023-09-19T14:03:06;2.07;;;0.90;;
11238;SDS011;5677;48.488;13.436;2023-09-19T14:05:32;1.33;;;1.00;;
11238;SDS011;5677;48.488;13.436;2023-09-19T14:07:59;1.87;;;1.10;;
11238;SDS011;5677;48.488;13.436;2023-09-19T14:10:28;2.10;;;1.20;;
11238;SDS011;5677;48.488;13.436;2023-09-19T14:12:56;1.93;;;1.10;;
11238;SDS011;5677;48.488;13.436;2023-09-19T14:15:24;2.10;;;1.10;;
11238;SDS011;5677;48.488;13.436;2023-09-19T14:17:54;1.60;;;1.10;;
11238;SDS011;5677;48.488;13.436;2023-09-19T14:20:23;1.40;;;1.13;;
11238;SDS011;5677;48.488;13.436;2023-09-19T14:22:51;1.53;;;0.97;;
11238;SDS011;5677;48.488;13.436;2023-09-19T14:25:18;2.20;;;1.10;;
11238;SDS011;5677;48.488;13.436;2023-09-19T14:27:46;1.57;;;1.03;;
11238;SDS011;5677;48.488;13.436;2023-09-19T14:30:13;1.13;;;1.07;;
11238;SDS011;5677;48.488;13.436;2023-09-19T14:32:40;1.37;;;0.97;;
11238;SDS011;5677;48.488;13.436;2023-09-19T14:35:07;2.50;;;1.10;;
11238;SDS011;5677;48.488;13.436;2023-09-19T14:37:37;2.97;;;1.30;;
11238;SDS011;5677;48.488;13.436;2023-09-19T14:40:05;4.13;;;1.57;;
11238;SDS011;5677;48.488;13.436;2023-09-19T14:42:34;4.10;;;1.27;;
11238;SDS011;5677;48.488;13.436;2023-09-19T14:45:03;4.90;;;1.33;;
11238;SDS011;5677;48.488;13.436;2023-09-19T14:47:30;3.77;;;1.30;;
11238;SDS011;5677;48.488;13.436;2023-09-19T14:49:58;3.87;;;1.43;;
11238;SDS011;5677;48.488;13.436;2023-09-19T14:52:25;2.87;;;1.30;;
11238;SDS011;5677;48.488;13.436;2023-09-19T14:54:54;3.33;;;1.50;;
11238;SDS011;5677;48.488;13.436;2023-09-19T14:57:21;3.47;;;1.53;;
11238;SDS011;5677;48.488;13.436;2023-09-19T14:59:49;2.23;;;1.40;;
11238;SDS011;5677;48.488;13.436;2023-09-19T15:02:16;11.77;;;1.90;;
11238;SDS011;5677;48.488;13.436;2023-09-19T15:04:44;7.20;;;1.70;;
11238;SDS011;5677;48.488;13.436;2023-09-19T15:07:12;2.40;;;1.33;;
11238;SDS011;5677;48.488;13.436;2023-09-19T15:09:40;5.37;;;1.57;;
11238;SDS011;5677;48.488;13.436;2023-09-19T15:12:08;4.87;;;1.27;;
11238;SDS011;5677;48.488;13.436;2023-09-19T15:14:35;4.00;;;1.50;;
11238;SDS011;5677;48.488;13.436;2023-09-19T15:17:02;3.83;;;1.50;;
11238;SDS011;5677;48.488;13.436;2023-09-19T15:19:29;5.17;;;1.40;;
11238;SDS011;5677;48.488;13.436;2023-09-19T15:21:56;5.07;;;1.53;;
11238;SDS011;5677;48.488;13.436;2023-09-19T15:24:23;3.30;;;1.60;;